createdAt,value
2018-07-17T00:00:41.629Z,6.73
2018-07-17T00:04:43.828Z,6.90
2018-07-17T00:08:46.164Z,7.20
2018-07-17T00:12:48.439Z,6.93
2018-07-17T00:16:50.526Z,6.10
2018-07-17T00:20:52.769Z,8.60
2018-07-17T00:24:54.923Z,7.77
2018-07-17T00:28:57.427Z,8.07
2018-07-17T00:32:59.675Z,7.40
2018-07-17T00:37:01.963Z,7.43
2018-07-17T00:41:04.328Z,8.00
2018-07-17T00:45:06.487Z,7.23
2018-07-17T00:49:08.662Z,11.57
2018-07-17T00:53:11.145Z,8.87
2018-07-17T00:57:13.710Z,9.20
2018-07-17T01:01:21.552Z,6.97
2018-07-17T01:05:29.299Z,7.03
2018-07-17T01:09:37.267Z,8.80
2018-07-17T01:13:57.963Z,9.40
2018-07-17T01:18:00.154Z,8.33
2018-07-17T01:22:02.319Z,8.90
2018-07-17T01:26:05.217Z,7.37
2018-07-17T01:30:07.565Z,7.43
2018-07-17T01:34:09.681Z,7.07
2018-07-17T01:38:11.831Z,7.80
2018-07-17T01:42:13.979Z,8.00
2018-07-17T01:46:16.343Z,8.30
2018-07-17T01:50:18.495Z,7.83
2018-07-17T01:54:20.655Z,7.80
2018-07-17T01:58:22.803Z,7.07
2018-07-17T02:02:24.922Z,7.73
2018-07-17T02:06:27.478Z,7.10
2018-07-17T02:10:29.901Z,8.03
2018-07-17T02:14:32.106Z,8.20
2018-07-17T02:18:34.459Z,7.50
2018-07-17T02:22:36.659Z,7.40
2018-07-17T02:26:38.802Z,7.77
2018-07-17T02:30:40.950Z,7.77
2018-07-17T02:34:43.153Z,7.43
2018-07-17T02:38:45.394Z,9.40
2018-07-17T02:42:47.808Z,9.37
2018-07-17T02:46:50.011Z,9.60
2018-07-17T02:50:52.195Z,8.53
2018-07-17T02:54:54.486Z,10.83
2018-07-17T02:58:57.159Z,9.90
2018-07-17T03:02:59.311Z,14.00
2018-07-17T03:07:01.477Z,9.37
2018-07-17T03:11:03.679Z,9.47
2018-07-17T03:15:05.824Z,9.73
2018-07-17T03:19:08.615Z,8.83
2018-07-17T03:23:10.816Z,8.97
2018-07-17T03:27:13.096Z,9.23
2018-07-17T03:31:15.395Z,10.00
2018-07-17T03:35:17.511Z,8.50
2018-07-17T03:39:19.674Z,9.30
2018-07-17T03:43:21.948Z,9.67
2018-07-17T03:47:24.115Z,10.63
2018-07-17T03:51:26.285Z,9.43
2018-07-17T03:55:28.442Z,8.60
2018-07-17T03:59:30.684Z,10.03
2018-07-17T04:03:32.823Z,9.43
2018-07-17T04:07:35.771Z,9.43
2018-07-17T04:11:38.072Z,8.23
2018-07-17T04:15:40.449Z,8.73
2018-07-17T04:19:42.636Z,9.33
2018-07-17T04:23:45.012Z,11.87
2018-07-17T04:27:47.166Z,10.17
2018-07-17T04:31:49.429Z,10.90
2018-07-17T04:35:51.581Z,10.43
2018-07-17T04:39:53.731Z,11.60
2018-07-17T04:43:55.904Z,9.90
2018-07-17T04:47:58.043Z,10.87
2018-07-17T04:52:00.310Z,10.13
2018-07-17T04:56:02.503Z,10.70
2018-07-17T05:00:04.961Z,9.20
2018-07-17T05:04:07.151Z,10.17
2018-07-17T05:08:09.300Z,9.97
2018-07-17T05:12:11.515Z,9.80
2018-07-17T05:16:13.719Z,9.90
2018-07-17T05:20:16.029Z,10.10
2018-07-17T05:24:18.142Z,9.57
2018-07-17T05:28:20.326Z,9.73
2018-07-17T05:32:22.590Z,8.93
2018-07-17T05:36:25.035Z,8.10
2018-07-17T05:40:27.248Z,10.13
2018-07-17T05:44:29.446Z,8.50
2018-07-17T05:48:31.814Z,9.50
2018-07-17T05:52:34.163Z,8.53
2018-07-17T05:56:36.415Z,8.03
2018-07-17T06:00:38.568Z,8.87
2018-07-17T06:04:40.730Z,6.97
2018-07-17T06:08:42.952Z,8.10
2018-07-17T06:12:45.170Z,9.73
2018-07-17T06:16:47.338Z,6.00
2018-07-17T06:20:51.202Z,5.83
2018-07-17T06:24:53.368Z,6.03
2018-07-17T06:28:56.051Z,6.53
2018-07-17T06:32:58.273Z,5.50
2018-07-17T06:37:00.405Z,6.03
2018-07-17T06:41:02.675Z,8.83
2018-07-17T06:45:04.929Z,7.40
2018-07-17T06:49:07.091Z,8.97
2018-07-17T06:53:09.534Z,6.60
2018-07-17T06:57:11.747Z,6.20
2018-07-17T07:01:14.072Z,5.77
2018-07-17T07:05:16.408Z,5.27
2018-07-17T07:09:18.514Z,10.80
2018-07-17T07:13:20.664Z,5.80
2018-07-17T07:17:22.911Z,5.67
2018-07-17T07:21:25.064Z,5.27
2018-07-17T07:25:27.191Z,4.13
2018-07-17T07:29:29.340Z,4.63
2018-07-17T07:33:31.495Z,4.40
2018-07-17T07:37:33.690Z,4.47
2018-07-17T07:41:35.885Z,4.23
2018-07-17T07:45:38.022Z,3.60
2018-07-17T07:49:40.175Z,4.30
2018-07-17T07:53:42.300Z,5.00
2018-07-17T07:57:45.653Z,3.83
2018-07-17T08:01:47.853Z,6.40
2018-07-17T08:05:50.110Z,6.00
2018-07-17T08:09:52.256Z,4.27
2018-07-17T08:13:54.430Z,4.93
2018-07-17T08:17:56.648Z,4.17
2018-07-17T08:21:58.848Z,3.57
2018-07-17T08:26:01.095Z,4.53
2018-07-17T08:30:03.451Z,3.70
2018-07-17T08:34:05.707Z,3.70
2018-07-17T08:38:07.895Z,7.03
2018-07-17T08:42:10.138Z,5.77
2018-07-17T08:46:12.414Z,4.20
2018-07-17T08:50:14.567Z,4.00
2018-07-17T08:54:16.763Z,3.13
2018-07-17T08:58:18.928Z,3.73
2018-07-17T09:02:21.079Z,2.73
2018-07-17T09:06:23.490Z,3.10
2018-07-17T09:10:25.629Z,3.70
2018-07-17T09:14:27.772Z,5.90
2018-07-17T09:18:29.956Z,3.53
2018-07-17T09:22:33.728Z,3.53
2018-07-17T09:26:36.033Z,2.73
2018-07-17T09:30:43.966Z,4.30
2018-07-17T09:34:46.155Z,6.60
2018-07-17T09:38:48.295Z,11.67
2018-07-17T09:42:50.446Z,3.17
2018-07-17T09:46:53.597Z,4.17
2018-07-17T09:50:55.749Z,5.10
2018-07-17T09:54:57.860Z,3.77
2018-07-17T09:59:00.135Z,11.73
2018-07-17T10:03:02.918Z,19.30
2018-07-17T10:07:05.202Z,4.27
2018-07-17T10:11:07.499Z,6.43
2018-07-17T10:15:09.665Z,7.10
2018-07-17T10:19:11.833Z,4.80
2018-07-17T10:23:14.243Z,3.93
2018-07-17T10:27:16.364Z,4.30
2018-07-17T10:31:18.555Z,3.83
2018-07-17T10:35:20.851Z,3.93
2018-07-17T10:39:23.027Z,6.63
2018-07-17T10:43:25.235Z,6.27
2018-07-17T10:47:27.489Z,4.53
2018-07-17T10:51:29.617Z,5.23
2018-07-17T10:55:31.812Z,4.00
2018-07-17T10:59:33.959Z,3.33
2018-07-17T11:03:36.133Z,3.43
2018-07-17T11:07:38.776Z,2.67
2018-07-17T11:11:41.027Z,3.40
2018-07-17T11:15:43.418Z,4.00
2018-07-17T11:19:45.683Z,4.87
2018-07-17T11:23:47.829Z,3.23
2018-07-17T11:27:50.012Z,3.60
2018-07-17T11:31:52.304Z,2.63
2018-07-17T11:35:55.735Z,4.22
2018-07-17T11:39:58.194Z,8.33
2018-07-17T11:44:01.562Z,4.10
2018-07-17T11:48:06.287Z,2.77
2018-07-17T11:52:08.512Z,2.80
2018-07-17T11:56:10.684Z,6.17
2018-07-17T12:00:12.962Z,3.87
2018-07-17T12:04:15.108Z,2.60
2018-07-17T12:08:17.264Z,3.57
2018-07-17T12:12:19.411Z,2.93
2018-07-17T12:16:21.579Z,9.03
2018-07-17T12:20:23.889Z,3.63
2018-07-17T12:24:25.972Z,6.53
2018-07-17T12:28:28.189Z,6.00
2018-07-17T12:32:30.508Z,3.50
2018-07-17T12:36:32.711Z,8.53
2018-07-17T12:40:34.938Z,4.33
2018-07-17T12:44:37.083Z,4.40
2018-07-17T12:48:39.303Z,7.20
2018-07-17T12:52:41.507Z,5.67
2018-07-17T12:56:43.655Z,4.27
2018-07-17T13:00:45.796Z,4.87
2018-07-17T13:04:48.003Z,3.90
2018-07-17T13:08:50.183Z,3.43
2018-07-17T13:12:52.361Z,5.10
2018-07-17T13:16:54.520Z,3.07
2018-07-17T13:20:56.700Z,4.90
2018-07-17T13:24:58.890Z,4.23
2018-07-17T13:29:01.071Z,4.17
2018-07-17T13:33:03.310Z,3.23
2018-07-17T13:37:05.468Z,6.50
2018-07-17T13:41:07.691Z,3.63
2018-07-17T13:45:09.958Z,3.70
2018-07-17T13:49:12.249Z,3.87
2018-07-17T13:53:14.435Z,4.63
2018-07-17T13:57:16.649Z,4.10
2018-07-17T14:01:18.856Z,3.50
2018-07-17T14:05:21.087Z,4.63
2018-07-17T14:09:23.302Z,7.77
2018-07-17T14:13:25.505Z,4.90
2018-07-17T14:17:27.842Z,3.30
2018-07-17T14:21:30.379Z,4.50
2018-07-17T14:25:32.610Z,9.60
2018-07-17T14:29:34.868Z,4.30
2018-07-17T14:33:37.533Z,5.37
2018-07-17T14:37:39.763Z,5.60
2018-07-17T14:41:42.414Z,8.43
2018-07-17T14:45:44.658Z,4.57
2018-07-17T14:49:47.027Z,7.70
2018-07-17T14:53:49.207Z,5.10
2018-07-17T14:57:51.460Z,4.23
2018-07-17T15:01:53.660Z,5.63
2018-07-17T15:05:55.846Z,4.50
2018-07-17T15:09:58.071Z,3.53
2018-07-17T15:14:00.243Z,4.27
2018-07-17T15:18:02.416Z,3.33
2018-07-17T15:22:04.973Z,7.67
2018-07-17T15:26:07.122Z,3.77
2018-07-17T15:30:09.310Z,5.57
2018-07-17T15:34:11.505Z,4.80
2018-07-17T15:38:13.658Z,4.20
2018-07-17T15:42:15.799Z,11.10
2018-07-17T15:46:17.957Z,7.33
2018-07-17T15:50:20.145Z,8.43
2018-07-17T15:54:22.335Z,6.37
2018-07-17T15:58:24.511Z,3.57
2018-07-17T16:02:26.703Z,4.13
2018-07-17T16:06:28.890Z,3.73
2018-07-17T16:10:31.128Z,2.40
2018-07-17T16:14:33.323Z,4.87
2018-07-17T16:18:35.546Z,2.93
2018-07-17T16:22:37.762Z,4.40
2018-07-17T16:26:40.105Z,4.80
2018-07-17T16:30:42.127Z,3.70
2018-07-17T16:34:44.340Z,6.77
2018-07-17T16:38:46.511Z,4.33
2018-07-17T16:42:48.643Z,4.77
2018-07-17T16:46:50.850Z,3.73
2018-07-17T16:50:53.007Z,2.57
2018-07-17T16:54:56.081Z,4.07
2018-07-17T16:58:58.239Z,5.67
2018-07-17T17:03:00.399Z,7.57
2018-07-17T17:07:02.610Z,4.20
2018-07-17T17:11:04.825Z,2.27
2018-07-17T17:15:07.016Z,2.30
2018-07-17T17:19:09.250Z,2.00
2018-07-17T17:23:11.431Z,6.63
2018-07-17T17:27:13.617Z,2.83
2018-07-17T17:31:16.032Z,3.70
2018-07-17T17:35:18.203Z,3.87
2018-07-17T17:39:20.373Z,2.37
2018-07-17T17:43:22.523Z,2.43
2018-07-17T17:47:24.680Z,2.80
2018-07-17T17:51:26.868Z,2.13
2018-07-17T17:55:29.012Z,2.87
2018-07-17T17:59:31.179Z,4.07
2018-07-17T18:03:33.406Z,1.87
2018-07-17T18:07:35.685Z,2.10
2018-07-17T18:11:37.910Z,2.10
2018-07-17T18:15:40.065Z,3.70
2018-07-17T18:19:42.337Z,2.90
2018-07-17T18:23:44.669Z,2.10
2018-07-17T18:27:46.931Z,1.73
2018-07-17T18:31:49.137Z,4.13
2018-07-17T18:35:51.340Z,2.53
2018-07-17T18:39:53.542Z,2.63
2018-07-17T18:43:55.716Z,3.17
2018-07-17T18:47:57.920Z,2.13
2018-07-17T18:52:00.078Z,2.20
2018-07-17T18:56:02.248Z,2.37
2018-07-17T19:00:05.175Z,2.77
2018-07-17T19:04:07.352Z,2.50
2018-07-17T19:08:09.572Z,2.40
2018-07-17T19:12:11.807Z,5.37
2018-07-17T19:16:13.924Z,4.27
2018-07-17T19:20:16.131Z,8.47
2018-07-17T19:24:18.371Z,3.77
2018-07-17T19:28:20.562Z,6.67
2018-07-17T19:32:22.765Z,5.77
2018-07-17T19:36:24.935Z,6.83
2018-07-17T19:40:27.101Z,4.63
2018-07-17T19:44:29.265Z,4.20
2018-07-17T19:48:31.468Z,3.63
2018-07-17T19:52:33.692Z,8.30
2018-07-17T19:56:35.869Z,7.83
2018-07-17T20:00:38.083Z,5.53
2018-07-17T20:04:40.277Z,4.87
2018-07-17T20:08:42.470Z,4.37
2018-07-17T20:12:44.627Z,4.83
2018-07-17T20:16:46.845Z,3.87
2018-07-17T20:20:48.983Z,3.47
2018-07-17T20:24:51.139Z,3.73
2018-07-17T20:28:53.405Z,4.43
2018-07-17T20:32:55.559Z,4.87
2018-07-17T20:36:57.794Z,4.10
2018-07-17T20:40:59.968Z,3.93
2018-07-17T20:45:02.132Z,4.07
2018-07-17T20:49:04.296Z,3.80
2018-07-17T20:53:06.615Z,3.67
2018-07-17T20:57:08.711Z,4.20
2018-07-17T21:01:10.897Z,4.33
2018-07-17T21:05:13.154Z,4.60
2018-07-17T21:09:15.370Z,3.70
2018-07-17T21:13:17.660Z,3.63
2018-07-17T21:17:19.739Z,4.00
2018-07-17T21:21:21.901Z,3.70
2018-07-17T21:25:24.094Z,4.70
2018-07-17T21:29:26.264Z,8.53
2018-07-17T21:33:28.431Z,4.13
2018-07-17T21:37:30.583Z,5.63
2018-07-17T21:41:32.800Z,5.97
2018-07-17T21:45:35.002Z,3.50
2018-07-17T21:49:37.436Z,2.57
2018-07-17T21:53:39.660Z,3.30
2018-07-17T21:57:41.892Z,4.83
2018-07-17T22:01:44.099Z,3.77
2018-07-17T22:05:46.303Z,6.43
2018-07-17T22:09:48.676Z,3.40
2018-07-17T22:13:50.988Z,4.57
2018-07-17T22:17:53.187Z,3.03
2018-07-17T22:21:55.352Z,3.70
2018-07-17T22:25:57.577Z,4.83
2018-07-17T22:29:59.870Z,2.87
2018-07-17T22:34:02.025Z,2.70
2018-07-17T22:38:04.214Z,4.17
2018-07-17T22:42:08.441Z,3.43
2018-07-17T22:46:10.685Z,3.10
2018-07-17T22:50:12.995Z,4.80
2018-07-17T22:54:15.418Z,6.80
2018-07-17T22:58:17.711Z,16.97
2018-07-17T23:02:19.915Z,3.53
2018-07-17T23:06:22.354Z,4.07
2018-07-17T23:10:24.576Z,4.60
2018-07-17T23:14:26.752Z,4.40
2018-07-17T23:18:28.967Z,3.77
2018-07-17T23:22:56.776Z,3.70
2018-07-17T23:26:58.984Z,3.83
2018-07-17T23:31:01.201Z,5.50
2018-07-17T23:35:03.444Z,3.83
2018-07-17T23:39:07.209Z,3.83
2018-07-17T23:43:09.434Z,7.67
2018-07-17T23:47:11.615Z,4.43
2018-07-17T23:51:13.823Z,6.10
2018-07-17T23:55:15.992Z,4.30
2018-07-17T23:59:18.189Z,7.17
